Terminal Aerodrome Forecast
Issued by NWS Cleveland, OH

Home | Current Version | Previous Version | Text Only | Print | Product List | Glossary On
Versions: 1 2 3 4 5 6 7 8 9 10 11 12 13 14 15 16 17 18 19 20 21 22 23 24 25 26 27 28 29 30
000
FTUS41 KCLE 291729
TAFCLE
TAF
KCLE 291729Z 2918/3024 31008KT 4SM BR OVC006
     FM292000 36008KT P6SM OVC012
     FM292100 03005KT P6SM BKN025
     FM300100 VRB04KT P6SM SCT025
     FM301500 09008KT P6SM OVC100=

USA.gov is the U.S. government's official web portal to all federal, state and local government web resources and services.